createdAt,value
2017-12-19T00:00:35.355Z,51.63
2017-12-19T00:02:45.881Z,32.03
2017-12-19T00:04:58.090Z,23.07
2017-12-19T00:07:11.008Z,25.50
2017-12-19T00:09:19.154Z,41.83
2017-12-19T00:11:30.102Z,37.33
2017-12-19T00:13:40.011Z,44.37
2017-12-19T00:15:51.095Z,37.53
2017-12-19T00:18:01.134Z,18.40
2017-12-19T00:20:14.643Z,15.30
2017-12-19T00:22:36.632Z,15.20
2017-12-19T00:24:47.431Z,14.20
2017-12-19T00:26:57.842Z,13.73
2017-12-19T00:29:04.288Z,13.30
2017-12-19T00:31:13.965Z,12.93
2017-12-19T00:33:24.976Z,13.40
2017-12-19T00:35:33.901Z,12.40
2017-12-19T00:37:43.816Z,12.33
2017-12-19T00:39:55.295Z,11.60
2017-12-19T00:42:01.493Z,12.30
2017-12-19T00:44:10.131Z,11.20
2017-12-19T00:46:19.246Z,12.57
2017-12-19T00:48:29.233Z,12.93
2017-12-19T00:50:35.743Z,12.20
2017-12-19T00:55:01.288Z,12.20
2017-12-19T00:57:07.258Z,12.10
2017-12-19T00:59:17.238Z,12.27
2017-12-19T01:01:27.585Z,11.60
2017-12-19T01:03:34.919Z,12.37
2017-12-19T01:05:41.084Z,12.30
2017-12-19T01:07:49.246Z,12.27
2017-12-19T01:09:54.970Z,13.20
2017-12-19T01:12:01.819Z,11.13
2017-12-19T01:14:07.902Z,11.30
2017-12-19T01:16:13.889Z,11.00
2017-12-19T01:18:21.002Z,11.47
2017-12-19T01:20:27.658Z,11.77
2017-12-19T01:22:33.887Z,12.80
2017-12-19T01:24:40.041Z,12.47
2017-12-19T01:26:49.897Z,11.40
2017-12-19T01:28:56.445Z,12.40
2017-12-19T01:31:06.830Z,12.97
2017-12-19T01:33:14.370Z,11.30
2017-12-19T01:35:32.318Z,12.43
2017-12-19T01:37:48.795Z,12.87
2017-12-19T01:40:01.939Z,12.17
2017-12-19T01:42:10.420Z,11.40
2017-12-19T01:44:20.478Z,12.23
2017-12-19T01:46:30.274Z,12.20
2017-12-19T01:48:37.509Z,12.77
2017-12-19T01:50:45.573Z,12.03
2017-12-19T01:52:55.134Z,11.80
2017-12-19T01:55:02.371Z,11.30
2017-12-19T01:57:08.387Z,12.70
2017-12-19T01:59:16.306Z,11.30
2017-12-19T02:01:25.145Z,10.60
2017-12-19T02:03:34.518Z,11.47
2017-12-19T02:05:41.579Z,11.40
2017-12-19T02:07:48.110Z,12.80
2017-12-19T02:10:00.650Z,11.40
2017-12-19T02:12:07.889Z,11.13
2017-12-19T02:14:13.662Z,11.10
2017-12-19T02:16:19.739Z,9.90
2017-12-19T02:18:27.318Z,10.97
2017-12-19T02:20:36.311Z,10.53
2017-12-19T02:22:43.146Z,11.50
2017-12-19T02:24:48.801Z,10.60
2017-12-19T02:26:55.798Z,12.00
2017-12-19T02:29:04.230Z,10.10
2017-12-19T02:31:11.099Z,10.63
2017-12-19T02:33:20.533Z,9.40
2017-12-19T02:35:26.488Z,9.60
2017-12-19T02:37:35.322Z,10.10
2017-12-19T02:39:41.732Z,9.97
2017-12-19T02:41:52.632Z,10.23
2017-12-19T02:43:58.469Z,10.30
2017-12-19T02:46:11.089Z,10.43
2017-12-19T02:48:19.622Z,9.90
2017-12-19T02:50:30.131Z,9.47
2017-12-19T02:52:37.739Z,9.57
2017-12-19T02:54:44.792Z,8.63
2017-12-19T02:56:51.307Z,9.60
2017-12-19T02:59:01.729Z,9.87
2017-12-19T03:01:07.790Z,11.00
2017-12-19T03:03:13.878Z,9.70
2017-12-19T03:05:22.292Z,9.77
2017-12-19T03:07:27.990Z,11.00
2017-12-19T03:09:35.607Z,9.93
2017-12-19T03:11:42.903Z,9.87
2017-12-19T03:13:49.865Z,9.90
2017-12-19T03:15:55.407Z,9.47
2017-12-19T03:18:02.539Z,8.87
2017-12-19T03:20:11.678Z,10.97
2017-12-19T03:22:17.164Z,9.77
2017-12-19T03:24:25.141Z,9.57
2017-12-19T03:26:32.444Z,10.40
2017-12-19T04:12:01.030Z,10.00
2017-12-19T04:14:09.684Z,9.50
2017-12-19T04:16:18.152Z,10.63
2017-12-19T04:18:27.743Z,10.33
2017-12-19T04:20:33.142Z,10.93
2017-12-19T04:22:38.592Z,10.20
2017-12-19T04:24:43.947Z,10.73
2017-12-19T04:26:49.762Z,11.17
2017-12-19T04:28:55.020Z,10.00
2017-12-19T04:31:00.378Z,10.30
2017-12-19T04:33:12.029Z,10.10
2017-12-19T04:35:17.693Z,9.70
2017-12-19T04:37:23.741Z,9.43
2017-12-19T04:39:29.331Z,10.03
2017-12-19T04:41:35.389Z,10.20
2017-12-19T04:43:41.512Z,9.97
2017-12-19T04:45:47.982Z,9.73
2017-12-19T04:47:54.266Z,10.67
2017-12-19T04:50:00.592Z,11.00
2017-12-19T04:52:06.500Z,10.73
2017-12-19T04:54:13.536Z,10.93
2017-12-19T04:56:20.272Z,10.30
2017-12-19T04:58:26.092Z,10.77
2017-12-19T05:00:33.707Z,10.90
2017-12-19T05:02:39.297Z,10.93
2017-12-19T05:04:44.551Z,10.63
2017-12-19T05:06:49.990Z,10.00
2017-12-19T05:08:55.778Z,11.80
2017-12-19T05:11:02.357Z,10.17
2017-12-19T05:13:07.875Z,12.37
2017-12-19T05:15:13.334Z,11.00
2017-12-19T05:17:18.927Z,11.60
2017-12-19T05:19:24.076Z,11.60
2017-12-19T05:21:30.320Z,13.57
2017-12-19T05:23:37.395Z,12.47
2017-12-19T05:25:42.812Z,12.40
2017-12-19T05:27:48.154Z,12.13
2017-12-19T05:29:53.589Z,11.03
2017-12-19T05:31:59.288Z,11.03
2017-12-19T05:34:05.340Z,11.43
2017-12-19T05:36:10.744Z,12.80
2017-12-19T05:38:18.134Z,11.30
2017-12-19T05:40:24.809Z,11.13
2017-12-19T05:42:31.530Z,11.37
2017-12-19T05:44:38.695Z,12.90
2017-12-19T05:46:45.857Z,11.70
2017-12-19T05:48:56.649Z,11.87
2017-12-19T05:51:06.306Z,12.67
2017-12-19T05:53:15.947Z,13.37
2017-12-19T05:55:22.948Z,13.30
2017-12-19T05:57:28.979Z,12.87
2017-12-19T05:59:35.917Z,12.70
2017-12-19T06:01:43.895Z,12.83
2017-12-19T06:03:49.583Z,12.40
2017-12-19T06:06:04.130Z,12.10
2017-12-19T06:08:09.988Z,11.50
2017-12-19T06:10:16.608Z,13.97
2017-12-19T06:12:27.161Z,12.50
2017-12-19T06:14:36.847Z,11.37
2017-12-19T06:16:47.152Z,12.00
2017-12-19T06:18:59.024Z,12.20
2017-12-19T06:21:06.762Z,12.00
2017-12-19T06:23:17.174Z,11.97
2017-12-19T06:25:24.160Z,12.00
2017-12-19T06:27:30.573Z,12.50
2017-12-19T06:29:36.813Z,11.90
2017-12-19T06:31:45.111Z,12.83
2017-12-19T06:33:52.476Z,10.53
2017-12-19T06:36:02.461Z,29.23
2017-12-19T06:38:08.666Z,11.47
2017-12-19T06:40:15.911Z,218.23
2017-12-19T06:42:29.329Z,178.33
2017-12-19T06:44:35.198Z,540.10
2017-12-19T06:46:56.679Z,420.43
2017-12-19T06:49:04.025Z,714.80
2017-12-19T06:51:11.086Z,523.20
2017-12-19T06:53:17.412Z,552.03
2017-12-19T06:55:26.720Z,208.83
2017-12-19T06:57:35.699Z,72.83
2017-12-19T06:59:44.768Z,270.20
2017-12-19T07:01:52.762Z,132.13
2017-12-19T07:04:01.102Z,210.13
2017-12-19T07:06:15.493Z,468.60
2017-12-19T07:08:25.241Z,382.43
2017-12-19T07:10:43.194Z,697.93
2017-12-19T07:12:48.925Z,968.60
2017-12-19T07:14:54.846Z,509.07
2017-12-19T07:17:02.105Z,208.63
2017-12-19T07:19:08.233Z,92.30
2017-12-19T07:21:15.938Z,684.87
2017-12-19T07:23:25.583Z,467.37
2017-12-19T07:25:30.979Z,999.90
2017-12-19T07:27:37.402Z,673.93
2017-12-19T07:29:46.047Z,420.73
2017-12-19T07:31:53.184Z,323.53
2017-12-19T07:34:00.374Z,412.13
2017-12-19T07:36:07.515Z,369.10
2017-12-19T07:38:13.775Z,230.93
2017-12-19T07:40:29.561Z,75.13
2017-12-19T07:42:35.064Z,30.03
2017-12-19T07:44:42.247Z,199.50
2017-12-19T07:46:49.492Z,34.57
2017-12-19T07:48:57.678Z,16.43
2017-12-19T07:51:04.939Z,15.27
2017-12-19T07:53:13.703Z,11.73
2017-12-19T07:55:21.883Z,11.23
2017-12-19T07:57:27.829Z,11.03
2017-12-19T07:59:38.489Z,9.73
2017-12-19T08:01:44.963Z,471.93
2017-12-19T08:03:52.089Z,20.43
2017-12-19T08:05:58.020Z,210.63
2017-12-19T08:08:03.834Z,858.47
2017-12-19T08:10:09.596Z,852.57
2017-12-19T08:12:15.209Z,236.33
2017-12-19T08:14:21.176Z,593.73
2017-12-19T08:16:27.136Z,163.30
2017-12-19T08:18:36.232Z,526.47
2017-12-19T08:20:42.332Z,30.40
2017-12-19T08:22:49.204Z,19.63
2017-12-19T08:24:55.485Z,14.67
2017-12-19T08:27:01.353Z,125.53
2017-12-19T08:29:07.208Z,24.27
2017-12-19T08:31:13.332Z,30.57
2017-12-19T08:33:23.439Z,31.50
2017-12-19T08:35:37.954Z,470.97
2017-12-19T08:37:52.061Z,849.00
2017-12-19T08:39:59.898Z,777.10
2017-12-19T08:42:12.001Z,87.47
2017-12-19T08:44:22.366Z,48.27
2017-12-19T08:46:30.932Z,26.30
2017-12-19T08:48:36.794Z,18.90
2017-12-19T08:50:43.739Z,460.37
2017-12-19T08:52:53.049Z,314.13
2017-12-19T08:55:08.175Z,950.57
2017-12-19T08:57:21.312Z,239.37
2017-12-19T08:59:35.360Z,52.57
2017-12-19T09:01:53.787Z,52.07
2017-12-19T09:04:07.116Z,460.00
2017-12-19T09:06:24.459Z,23.07
2017-12-19T09:08:41.386Z,36.93
2017-12-19T09:10:53.714Z,21.57
2017-12-19T09:13:03.680Z,15.70
2017-12-19T09:15:29.954Z,15.33
2017-12-19T09:17:43.655Z,12.80
2017-12-19T09:19:51.481Z,10.77
2017-12-19T09:24:23.477Z,211.43
2017-12-19T09:26:34.087Z,301.77
2017-12-19T09:28:56.410Z,37.83
2017-12-19T09:31:09.222Z,167.20
2017-12-19T09:33:17.159Z,12.37
2017-12-19T09:35:33.428Z,52.30
2017-12-19T09:37:45.728Z,37.57
2017-12-19T09:39:58.130Z,16.70
2017-12-19T09:42:11.320Z,727.00
2017-12-19T09:44:33.815Z,60.10
2017-12-19T09:46:55.268Z,591.43
2017-12-19T09:49:06.434Z,271.20
2017-12-19T09:51:17.628Z,24.47
2017-12-19T09:53:31.012Z,14.10
2017-12-19T09:55:39.700Z,12.10
2017-12-19T09:57:51.272Z,11.03
2017-12-19T10:00:00.924Z,11.13
2017-12-19T10:02:11.007Z,9.33
2017-12-19T10:04:23.274Z,10.33
2017-12-19T10:06:36.482Z,9.90
2017-12-19T10:08:52.335Z,236.47
2017-12-19T10:11:03.602Z,22.23
2017-12-19T10:13:25.364Z,749.10
2017-12-19T10:15:35.221Z,430.27
2017-12-19T10:17:54.867Z,10.47
2017-12-19T10:20:09.734Z,39.90
2017-12-19T10:22:18.254Z,11.77
2017-12-19T10:24:24.421Z,14.70
2017-12-19T10:26:32.217Z,44.90
2017-12-19T10:28:44.279Z,999.90
2017-12-19T10:31:03.300Z,202.37
2017-12-19T10:33:20.043Z,145.40
2017-12-19T10:35:31.703Z,135.73
2017-12-19T10:37:42.327Z,264.83
2017-12-19T10:40:00.709Z,47.33
2017-12-19T10:42:15.618Z,20.97
2017-12-19T10:46:38.125Z,11.30
2017-12-19T10:48:49.894Z,11.90
2017-12-19T10:51:13.780Z,11.43
2017-12-19T10:53:27.207Z,10.80
2017-12-19T10:55:45.482Z,714.93
2017-12-19T10:57:56.337Z,18.73
2017-12-19T11:00:13.604Z,13.03
2017-12-19T11:02:27.802Z,10.10
2017-12-19T11:04:38.791Z,10.47
2017-12-19T11:06:49.192Z,10.30
2017-12-19T11:09:03.547Z,9.60
2017-12-19T11:11:11.486Z,10.20
2017-12-19T11:13:21.823Z,9.10
2017-12-19T11:15:35.544Z,47.90
2017-12-19T11:17:44.310Z,354.10
2017-12-19T11:19:55.600Z,19.67
2017-12-19T11:22:03.822Z,11.93
2017-12-19T11:24:17.498Z,11.63
2017-12-19T11:26:25.880Z,9.70
2017-12-19T11:28:43.040Z,9.73
2017-12-19T11:31:03.432Z,10.57
2017-12-19T11:36:55.055Z,596.57
2017-12-19T11:39:06.668Z,380.57
2017-12-19T11:41:18.071Z,479.27
2017-12-19T11:43:40.170Z,156.83
2017-12-19T11:45:50.756Z,204.03
2017-12-19T11:48:04.908Z,77.13
2017-12-19T11:50:15.927Z,571.10
2017-12-19T11:52:29.739Z,380.07
2017-12-19T11:54:37.523Z,119.97
2017-12-19T11:56:44.003Z,114.80
2017-12-19T11:58:51.880Z,342.07
2017-12-19T12:01:03.175Z,81.33
2017-12-19T12:03:10.199Z,539.30
2017-12-19T12:05:20.561Z,59.83
2017-12-19T12:07:36.177Z,16.50
2017-12-19T12:09:42.411Z,14.27
2017-12-19T12:11:50.588Z,12.27
2017-12-19T12:13:57.211Z,12.20
2017-12-19T12:16:07.703Z,26.03
2017-12-19T12:18:16.443Z,16.73
2017-12-19T12:20:24.916Z,53.57
2017-12-19T12:22:37.402Z,143.63
2017-12-19T12:24:45.678Z,64.10
2017-12-19T12:26:58.956Z,17.73
2017-12-19T12:29:06.443Z,13.30
2017-12-19T12:31:20.310Z,376.93
2017-12-19T12:33:37.898Z,20.97
2017-12-19T12:35:49.984Z,943.70
2017-12-19T12:37:59.509Z,30.77
2017-12-19T12:40:12.419Z,31.87
2017-12-19T12:42:24.292Z,78.63
2017-12-19T12:44:36.101Z,28.77
2017-12-19T12:46:47.286Z,17.40
2017-12-19T12:48:58.580Z,12.17
2017-12-19T12:51:12.652Z,86.27
2017-12-19T12:53:21.545Z,34.17
2017-12-19T12:55:31.293Z,15.47
2017-12-19T12:57:52.836Z,11.20
2017-12-19T13:00:10.844Z,9.70
2017-12-19T13:02:23.988Z,10.43
2017-12-19T13:06:59.229Z,8.50
2017-12-19T13:09:11.050Z,8.80
2017-12-19T13:11:33.052Z,34.93
2017-12-19T13:13:44.548Z,13.43
2017-12-19T13:15:59.943Z,10.93
2017-12-19T13:18:09.164Z,10.37
2017-12-19T13:20:26.200Z,11.40
2017-12-19T13:24:53.234Z,9.27
2017-12-19T13:27:11.531Z,57.70
2017-12-19T13:29:25.226Z,789.37
2017-12-19T13:31:37.422Z,505.13
2017-12-19T13:33:47.657Z,811.10
2017-12-19T13:35:57.007Z,35.57
2017-12-19T13:38:06.830Z,504.23
2017-12-19T13:40:17.634Z,28.30
2017-12-19T13:42:25.027Z,24.17
2017-12-19T13:44:31.917Z,12.23
2017-12-19T13:46:42.937Z,10.70
2017-12-19T13:48:49.305Z,9.87
2017-12-19T13:51:01.415Z,9.87
2017-12-19T13:53:10.118Z,8.80
2017-12-19T13:55:18.639Z,992.27
2017-12-19T13:57:34.320Z,703.57
2017-12-19T13:59:46.861Z,63.70
2017-12-19T14:01:55.131Z,939.57
2017-12-19T14:04:10.671Z,229.73
2017-12-19T14:06:17.196Z,60.53
2017-12-19T14:08:23.251Z,19.70
2017-12-19T14:10:30.448Z,15.63
2017-12-19T14:12:39.455Z,12.60
2017-12-19T14:14:49.438Z,12.00
2017-12-19T14:16:59.271Z,11.60
2017-12-19T14:19:07.489Z,9.20
2017-12-19T14:21:13.163Z,10.60
2017-12-19T14:23:22.944Z,9.77
2017-12-19T14:25:29.519Z,9.77
2017-12-19T14:27:36.549Z,9.07
2017-12-19T14:29:43.744Z,8.20
2017-12-19T14:31:49.821Z,9.20
2017-12-19T14:33:57.213Z,8.90
2017-12-19T14:36:06.239Z,9.37
2017-12-19T14:38:12.277Z,8.73
2017-12-19T14:40:19.628Z,9.20
2017-12-19T14:42:26.104Z,8.03
2017-12-19T14:44:33.643Z,8.40
2017-12-19T14:46:40.877Z,8.30
2017-12-19T14:48:48.804Z,7.70
2017-12-19T14:51:00.805Z,6.97
2017-12-19T14:53:07.443Z,7.00
2017-12-19T14:55:15.342Z,8.13
2017-12-19T14:57:23.491Z,7.10
2017-12-19T14:59:29.651Z,6.90
2017-12-19T15:01:36.889Z,7.00
2017-12-19T15:03:43.310Z,6.70
2017-12-19T15:05:52.367Z,7.20
2017-12-19T15:08:02.772Z,6.67
2017-12-19T15:10:19.775Z,5.60
2017-12-19T15:12:33.378Z,7.57
2017-12-19T15:14:44.056Z,7.07
2017-12-19T15:16:53.342Z,6.07
2017-12-19T15:19:09.365Z,6.00
2017-12-19T15:21:22.847Z,7.03
2017-12-19T15:23:32.242Z,5.90
2017-12-19T15:25:43.330Z,5.70
2017-12-19T15:27:51.183Z,6.90
2017-12-19T15:30:00.883Z,6.90
2017-12-19T15:32:07.427Z,6.63
2017-12-19T15:34:16.366Z,5.73
2017-12-19T15:36:26.860Z,6.43
2017-12-19T15:38:40.012Z,6.53
2017-12-19T15:40:52.414Z,5.63
2017-12-19T15:43:04.337Z,6.50
2017-12-19T15:45:16.086Z,5.87
2017-12-19T15:47:26.239Z,5.60
2017-12-19T15:49:39.156Z,6.07
2017-12-19T15:51:52.514Z,5.70
2017-12-19T15:54:01.804Z,6.03
2017-12-19T15:56:16.434Z,6.27
2017-12-19T15:58:29.918Z,5.47
2017-12-19T16:00:49.584Z,5.73
2017-12-19T16:02:59.670Z,5.23
2017-12-19T16:05:20.550Z,5.20
2017-12-19T16:07:33.716Z,5.40
2017-12-19T16:09:44.245Z,5.30
2017-12-19T16:11:54.503Z,5.43
2017-12-19T16:14:18.933Z,5.30
2017-12-19T16:16:27.825Z,5.03
2017-12-19T16:18:37.900Z,4.90
2017-12-19T16:20:44.610Z,4.70
2017-12-19T16:22:55.476Z,5.67
2017-12-19T16:25:15.025Z,5.10
2017-12-19T16:27:24.082Z,5.33
2017-12-19T16:29:32.272Z,5.30
2017-12-19T16:31:42.526Z,5.50
2017-12-19T16:33:51.054Z,4.90
2017-12-19T16:36:04.969Z,5.00
2017-12-19T16:38:22.072Z,5.03
2017-12-19T16:40:31.075Z,5.60
2017-12-19T16:42:48.151Z,5.50
2017-12-19T16:45:03.196Z,5.00
2017-12-19T16:47:18.541Z,4.30
2017-12-19T16:49:25.054Z,5.57
2017-12-19T16:51:36.874Z,5.13
2017-12-19T16:53:50.458Z,5.17
2017-12-19T16:56:03.415Z,5.20
2017-12-19T16:58:14.204Z,4.87
2017-12-19T17:00:24.805Z,5.17
2017-12-19T17:02:34.031Z,4.33
2017-12-19T17:04:42.435Z,5.07
2017-12-19T17:06:54.828Z,4.70
2017-12-19T17:09:04.572Z,4.53
2017-12-19T17:11:19.331Z,5.07
2017-12-19T17:13:31.892Z,4.70
2017-12-19T17:15:41.487Z,5.10
2017-12-19T17:17:51.389Z,4.80
2017-12-19T17:19:59.890Z,4.50
2017-12-19T17:22:05.681Z,4.97
2017-12-19T17:24:15.877Z,5.20
2017-12-19T17:26:28.692Z,4.87
2017-12-19T17:28:37.548Z,5.13
2017-12-19T17:30:51.139Z,4.70
2017-12-19T17:33:03.429Z,4.77
2017-12-19T17:35:13.668Z,4.63
2017-12-19T17:37:25.980Z,4.60
2017-12-19T17:39:35.903Z,5.30
2017-12-19T17:41:44.930Z,4.97
2017-12-19T17:43:53.368Z,4.83
2017-12-19T17:46:10.898Z,4.87
2017-12-19T17:48:19.819Z,4.73
2017-12-19T17:50:29.943Z,4.73
2017-12-19T17:52:37.214Z,4.43
2017-12-19T17:54:43.845Z,4.50
2017-12-19T17:56:56.855Z,4.47
2017-12-19T17:59:07.286Z,4.67
2017-12-19T18:01:17.317Z,4.00
2017-12-19T18:03:25.636Z,4.93
2017-12-19T18:05:33.521Z,4.30
2017-12-19T18:07:44.327Z,4.70
2017-12-19T18:09:53.798Z,4.43
2017-12-19T18:12:02.119Z,4.50
2017-12-19T18:14:13.702Z,4.40
2017-12-19T18:16:25.654Z,5.10
2017-12-19T18:18:41.244Z,4.47
2017-12-19T18:20:57.063Z,4.40
2017-12-19T18:23:11.182Z,4.70
2017-12-19T18:25:29.934Z,4.27
2017-12-19T18:27:45.562Z,3.90
2017-12-19T18:29:54.027Z,4.13
2017-12-19T18:32:19.804Z,4.30
2017-12-19T18:34:36.225Z,4.03
2017-12-19T18:36:58.429Z,4.40
2017-12-19T18:39:08.638Z,3.80
2017-12-19T18:41:18.209Z,3.87
2017-12-19T18:43:37.472Z,3.93
2017-12-19T18:45:50.017Z,4.40
2017-12-19T18:48:02.557Z,4.00
2017-12-19T18:50:12.074Z,4.30
2017-12-19T18:52:25.058Z,3.87
2017-12-19T18:54:41.302Z,4.60
2017-12-19T18:56:47.658Z,3.97
2017-12-19T19:01:12.939Z,3.80
2017-12-19T19:03:27.590Z,3.60
2017-12-19T19:05:44.053Z,3.63
2017-12-19T19:08:07.290Z,3.27
2017-12-19T19:10:34.899Z,3.57
2017-12-19T19:12:52.336Z,3.57
2017-12-19T19:17:28.680Z,3.67
2017-12-19T19:19:41.490Z,3.57
2017-12-19T19:21:51.519Z,3.50
2017-12-19T19:24:00.491Z,3.63
2017-12-19T19:26:16.611Z,3.60
2017-12-19T19:28:25.425Z,3.20
2017-12-19T19:30:35.615Z,3.10
2017-12-19T19:32:43.061Z,2.90
2017-12-19T19:34:51.218Z,3.10
2017-12-19T19:36:58.654Z,3.17
2017-12-19T19:39:07.381Z,3.17
2017-12-19T19:41:14.439Z,2.90
2017-12-19T19:43:23.143Z,3.00
2017-12-19T19:45:37.749Z,2.90
2017-12-19T19:47:49.647Z,3.40
2017-12-19T19:49:58.193Z,2.70
2017-12-19T19:52:27.481Z,2.97
2017-12-19T19:54:35.070Z,2.80
2017-12-19T19:56:47.738Z,3.33
2017-12-19T19:58:55.761Z,2.70
2017-12-19T20:01:10.091Z,2.90
2017-12-19T20:03:19.459Z,3.10
2017-12-19T20:05:26.180Z,2.80
2017-12-19T20:07:32.793Z,3.50
2017-12-19T20:09:39.509Z,2.90
2017-12-19T20:11:46.715Z,563.63
2017-12-19T20:13:55.989Z,263.27
2017-12-19T20:16:07.760Z,286.27
2017-12-19T20:18:17.050Z,384.83
2017-12-19T20:20:23.854Z,359.20
2017-12-19T20:22:31.495Z,340.67
2017-12-19T20:24:43.573Z,328.27
2017-12-19T20:26:55.421Z,985.33
2017-12-19T20:29:05.901Z,626.70
2017-12-19T20:31:15.943Z,796.07
2017-12-19T20:33:30.512Z,591.00
2017-12-19T20:35:42.426Z,659.60
2017-12-19T20:37:53.353Z,598.90
2017-12-19T20:40:13.427Z,807.23
2017-12-19T20:42:24.883Z,683.27
2017-12-19T20:44:35.549Z,682.23
2017-12-19T20:46:58.055Z,659.03
2017-12-19T20:49:12.663Z,623.70
2017-12-19T20:51:31.762Z,600.20
2017-12-19T20:53:43.395Z,697.37
2017-12-19T20:55:51.937Z,799.37
2017-12-19T20:57:59.246Z,826.00
2017-12-19T21:00:18.001Z,889.30
2017-12-19T21:02:25.013Z,798.13
2017-12-19T21:04:32.379Z,648.43
2017-12-19T21:08:55.677Z,661.77
2017-12-19T21:11:09.459Z,704.00
2017-12-19T21:13:20.498Z,689.00
2017-12-19T21:15:34.604Z,667.97
2017-12-19T21:17:46.183Z,657.27
2017-12-19T21:20:03.626Z,652.80
2017-12-19T21:22:16.907Z,809.97
2017-12-19T21:24:28.348Z,825.50
2017-12-19T21:26:38.129Z,783.73
2017-12-19T21:28:51.124Z,757.50
2017-12-19T21:31:01.738Z,912.63
2017-12-19T21:33:12.962Z,817.50
2017-12-19T21:35:21.366Z,884.80
2017-12-19T21:37:29.535Z,979.33
2017-12-19T21:39:38.332Z,843.20
2017-12-19T21:41:53.246Z,737.27
2017-12-19T21:44:03.411Z,706.37
2017-12-19T21:46:15.348Z,762.87
2017-12-19T21:48:30.084Z,739.17
2017-12-19T21:50:39.461Z,756.00
2017-12-19T21:52:53.608Z,743.60
2017-12-19T21:55:04.240Z,749.27
2017-12-19T21:57:13.977Z,741.23
2017-12-19T21:59:23.560Z,715.40
2017-12-19T22:01:32.129Z,684.17
2017-12-19T22:03:40.427Z,673.47
2017-12-19T22:05:50.206Z,645.67
2017-12-19T22:07:58.162Z,637.50
2017-12-19T22:10:07.464Z,616.83
2017-12-19T22:12:15.403Z,609.37
2017-12-19T22:14:23.039Z,586.13
2017-12-19T22:16:29.912Z,585.13
2017-12-19T22:18:40.371Z,562.77
2017-12-19T22:20:48.448Z,554.07
2017-12-19T22:22:58.578Z,545.03
2017-12-19T22:25:11.794Z,535.90
2017-12-19T22:27:23.126Z,532.87
2017-12-19T22:29:29.592Z,518.87
2017-12-19T22:31:37.910Z,510.80
2017-12-19T22:33:50.565Z,499.97
2017-12-19T22:35:57.061Z,493.80
2017-12-19T22:38:05.818Z,478.20
2017-12-19T22:40:14.718Z,480.60
2017-12-19T22:42:21.548Z,445.30
2017-12-19T22:44:28.744Z,443.53
2017-12-19T22:46:35.466Z,443.73
2017-12-19T22:48:43.490Z,424.47
2017-12-19T22:50:49.473Z,410.47
2017-12-19T22:52:55.388Z,413.70
2017-12-19T22:55:01.752Z,394.50
2017-12-19T22:57:08.455Z,382.17
2017-12-19T22:59:19.513Z,382.73
2017-12-19T23:01:33.014Z,362.70
2017-12-19T23:03:41.961Z,358.40
2017-12-19T23:05:59.869Z,353.80
2017-12-19T23:08:06.291Z,337.43
2017-12-19T23:10:13.782Z,311.27
2017-12-19T23:12:22.467Z,305.37
2017-12-19T23:14:30.309Z,292.57
2017-12-19T23:16:38.208Z,287.07
2017-12-19T23:18:45.268Z,275.30
2017-12-19T23:20:51.724Z,265.83
2017-12-19T23:23:00.035Z,251.60
2017-12-19T23:25:11.900Z,245.47
2017-12-19T23:27:20.080Z,238.67
2017-12-19T23:29:32.553Z,233.23
2017-12-19T23:31:40.984Z,216.10
2017-12-19T23:33:48.426Z,216.10
2017-12-19T23:35:57.168Z,205.63
2017-12-19T23:38:05.621Z,201.03
2017-12-19T23:40:13.234Z,196.63
2017-12-19T23:42:20.251Z,194.37
2017-12-19T23:44:29.881Z,188.37
2017-12-19T23:46:38.238Z,178.10
2017-12-19T23:48:45.004Z,170.10
2017-12-19T23:50:53.241Z,169.70
2017-12-19T23:53:02.323Z,160.67
2017-12-19T23:55:09.071Z,159.80
2017-12-19T23:57:16.614Z,153.17
2017-12-19T23:59:24.820Z,146.63
